sensor_id;sensor_type;location;lat;lon;timestamp;P1;durP1;ratioP1;P2;durP2;ratioP2
32138;SDS011;18644;48.700;9.210;2023-06-22T00:02:03;6.60;;;3.53;;
32138;SDS011;18644;48.700;9.210;2023-06-22T00:04:31;5.55;;;4.20;;
32138;SDS011;18644;48.700;9.210;2023-06-22T00:06:58;3.75;;;3.13;;
32138;SDS011;18644;48.700;9.210;2023-06-22T00:09:25;6.00;;;3.42;;
32138;SDS011;18644;48.700;9.210;2023-06-22T00:11:52;5.75;;;3.58;;
32138;SDS011;18644;48.700;9.210;2023-06-22T00:14:20;6.00;;;3.80;;
32138;SDS011;18644;48.700;9.210;2023-06-22T00:16:47;4.20;;;3.53;;
32138;SDS011;18644;48.700;9.210;2023-06-22T00:19:14;8.75;;;4.50;;
32138;SDS011;18644;48.700;9.210;2023-06-22T00:21:41;3.63;;;3.33;;
32138;SDS011;18644;48.700;9.210;2023-06-22T00:24:12;6.47;;;3.80;;
32138;SDS011;18644;48.700;9.210;2023-06-22T00:26:39;7.28;;;4.13;;
32138;SDS011;18644;48.700;9.210;2023-06-22T00:29:06;4.72;;;3.60;;
32138;SDS011;18644;48.700;9.210;2023-06-22T00:31:35;4.80;;;3.53;;
32138;SDS011;18644;48.700;9.210;2023-06-22T00:34:02;3.78;;;3.38;;
32138;SDS011;18644;48.700;9.210;2023-06-22T00:36:31;6.35;;;3.90;;
32138;SDS011;18644;48.700;9.210;2023-06-22T00:38:58;6.95;;;3.85;;
32138;SDS011;18644;48.700;9.210;2023-06-22T00:41:25;5.30;;;3.58;;
32138;SDS011;18644;48.700;9.210;2023-06-22T00:43:53;5.38;;;3.85;;
32138;SDS011;18644;48.700;9.210;2023-06-22T00:46:20;5.45;;;4.18;;
32138;SDS011;18644;48.700;9.210;2023-06-22T00:48:49;3.92;;;3.53;;
32138;SDS011;18644;48.700;9.210;2023-06-22T00:51:18;8.10;;;3.88;;
32138;SDS011;18644;48.700;9.210;2023-06-22T00:53:49;4.85;;;3.53;;
32138;SDS011;18644;48.700;9.210;2023-06-22T00:56:16;5.15;;;3.88;;
32138;SDS011;18644;48.700;9.210;2023-06-22T00:58:49;5.22;;;3.65;;
32138;SDS011;18644;48.700;9.210;2023-06-22T01:01:18;5.13;;;4.13;;
32138;SDS011;18644;48.700;9.210;2023-06-22T01:03:50;9.05;;;4.22;;
32138;SDS011;18644;48.700;9.210;2023-06-22T01:06:19;6.88;;;4.13;;
32138;SDS011;18644;48.700;9.210;2023-06-22T01:09:00;5.25;;;4.07;;
32138;SDS011;18644;48.700;9.210;2023-06-22T01:11:35;4.78;;;3.80;;
32138;SDS011;18644;48.700;9.210;2023-06-22T01:14:11;4.82;;;3.92;;
32138;SDS011;18644;48.700;9.210;2023-06-22T01:16:43;4.72;;;4.05;;
32138;SDS011;18644;48.700;9.210;2023-06-22T01:19:18;5.38;;;4.43;;
32138;SDS011;18644;48.700;9.210;2023-06-22T01:21:58;5.47;;;4.45;;
32138;SDS011;18644;48.700;9.210;2023-06-22T01:24:30;5.53;;;4.47;;
32138;SDS011;18644;48.700;9.210;2023-06-22T01:27:13;7.63;;;5.28;;
32138;SDS011;18644;48.700;9.210;2023-06-22T01:29:54;7.63;;;4.53;;
32138;SDS011;18644;48.700;9.210;2023-06-22T01:32:25;9.23;;;4.18;;
32138;SDS011;18644;48.700;9.210;2023-06-22T01:34:54;6.07;;;4.47;;
32138;SDS011;18644;48.700;9.210;2023-06-22T01:37:23;5.55;;;4.57;;
32138;SDS011;18644;48.700;9.210;2023-06-22T01:39:50;5.10;;;4.60;;
32138;SDS011;18644;48.700;9.210;2023-06-22T01:42:17;4.43;;;3.70;;
32138;SDS011;18644;48.700;9.210;2023-06-22T01:44:44;7.60;;;4.38;;
32138;SDS011;18644;48.700;9.210;2023-06-22T01:47:13;7.25;;;4.72;;
32138;SDS011;18644;48.700;9.210;2023-06-22T01:49:41;5.00;;;4.28;;
32138;SDS011;18644;48.700;9.210;2023-06-22T01:52:08;7.07;;;4.75;;
32138;SDS011;18644;48.700;9.210;2023-06-22T01:54:35;5.25;;;4.40;;
32138;SDS011;18644;48.700;9.210;2023-06-22T01:57:04;8.73;;;4.70;;
32138;SDS011;18644;48.700;9.210;2023-06-22T01:59:32;6.80;;;4.43;;
32138;SDS011;18644;48.700;9.210;2023-06-22T02:02:06;7.88;;;4.88;;
32138;SDS011;18644;48.700;9.210;2023-06-22T02:04:38;4.93;;;3.90;;
32138;SDS011;18644;48.700;9.210;2023-06-22T02:07:12;6.53;;;4.68;;
32138;SDS011;18644;48.700;9.210;2023-06-22T02:09:42;7.20;;;4.20;;
32138;SDS011;18644;48.700;9.210;2023-06-22T02:12:12;5.10;;;3.83;;
32138;SDS011;18644;48.700;9.210;2023-06-22T02:14:42;5.68;;;4.60;;
32138;SDS011;18644;48.700;9.210;2023-06-22T02:17:09;7.72;;;4.75;;
32138;SDS011;18644;48.700;9.210;2023-06-22T02:19:38;7.82;;;4.20;;
32138;SDS011;18644;48.700;9.210;2023-06-22T02:22:07;8.30;;;4.28;;
32138;SDS011;18644;48.700;9.210;2023-06-22T02:24:34;7.38;;;4.13;;
32138;SDS011;18644;48.700;9.210;2023-06-22T02:27:01;7.18;;;4.38;;
32138;SDS011;18644;48.700;9.210;2023-06-22T02:29:31;5.00;;;3.80;;
32138;SDS011;18644;48.700;9.210;2023-06-22T02:31:57;7.00;;;4.07;;
32138;SDS011;18644;48.700;9.210;2023-06-22T02:34:25;12.57;;;4.47;;
32138;SDS011;18644;48.700;9.210;2023-06-22T02:36:53;10.05;;;4.32;;
32138;SDS011;18644;48.700;9.210;2023-06-22T02:39:21;8.77;;;4.20;;
32138;SDS011;18644;48.700;9.210;2023-06-22T02:41:50;5.38;;;4.20;;
32138;SDS011;18644;48.700;9.210;2023-06-22T02:44:17;7.25;;;4.22;;
32138;SDS011;18644;48.700;9.210;2023-06-22T02:46:45;8.25;;;3.72;;
32138;SDS011;18644;48.700;9.210;2023-06-22T02:49:12;8.60;;;3.90;;
32138;SDS011;18644;48.700;9.210;2023-06-22T02:51:46;8.48;;;4.43;;
32138;SDS011;18644;48.700;9.210;2023-06-22T02:54:15;7.30;;;3.38;;
32138;SDS011;18644;48.700;9.210;2023-06-22T02:56:42;6.20;;;3.97;;
32138;SDS011;18644;48.700;9.210;2023-06-22T02:59:09;8.13;;;4.30;;
32138;SDS011;18644;48.700;9.210;2023-06-22T03:01:36;9.82;;;4.53;;
32138;SDS011;18644;48.700;9.210;2023-06-22T03:04:04;10.00;;;4.28;;
32138;SDS011;18644;48.700;9.210;2023-06-22T03:06:32;13.52;;;4.70;;
32138;SDS011;18644;48.700;9.210;2023-06-22T03:08:59;6.25;;;3.90;;
32138;SDS011;18644;48.700;9.210;2023-06-22T03:11:30;5.65;;;3.40;;
32138;SDS011;18644;48.700;9.210;2023-06-22T03:13:57;8.18;;;4.28;;
32138;SDS011;18644;48.700;9.210;2023-06-22T03:16:24;6.38;;;3.22;;
32138;SDS011;18644;48.700;9.210;2023-06-22T03:18:51;6.47;;;3.95;;
32138;SDS011;18644;48.700;9.210;2023-06-22T03:21:19;7.50;;;3.92;;
32138;SDS011;18644;48.700;9.210;2023-06-22T03:23:48;6.50;;;4.43;;
32138;SDS011;18644;48.700;9.210;2023-06-22T03:26:16;8.60;;;4.05;;
32138;SDS011;18644;48.700;9.210;2023-06-22T03:28:46;7.10;;;3.72;;
32138;SDS011;18644;48.700;9.210;2023-06-22T03:31:17;5.30;;;3.15;;
32138;SDS011;18644;48.700;9.210;2023-06-22T03:33:46;7.57;;;3.45;;
32138;SDS011;18644;48.700;9.210;2023-06-22T03:36:14;5.45;;;3.40;;
32138;SDS011;18644;48.700;9.210;2023-06-22T03:38:43;9.25;;;4.00;;
32138;SDS011;18644;48.700;9.210;2023-06-22T03:41:10;7.45;;;3.30;;
32138;SDS011;18644;48.700;9.210;2023-06-22T03:43:37;6.80;;;3.97;;
32138;SDS011;18644;48.700;9.210;2023-06-22T03:46:06;6.82;;;3.80;;
32138;SDS011;18644;48.700;9.210;2023-06-22T03:48:33;5.78;;;3.35;;
32138;SDS011;18644;48.700;9.210;2023-06-22T03:51:00;5.13;;;3.85;;
32138;SDS011;18644;48.700;9.210;2023-06-22T03:53:28;7.18;;;3.95;;
32138;SDS011;18644;48.700;9.210;2023-06-22T03:55:55;9.45;;;4.13;;
32138;SDS011;18644;48.700;9.210;2023-06-22T03:58:22;7.00;;;3.13;;
32138;SDS011;18644;48.700;9.210;2023-06-22T04:00:50;7.57;;;3.63;;
32138;SDS011;18644;48.700;9.210;2023-06-22T04:03:19;5.63;;;3.78;;
32138;SDS011;18644;48.700;9.210;2023-06-22T04:05:47;11.13;;;3.38;;
32138;SDS011;18644;48.700;9.210;2023-06-22T04:08:14;8.70;;;3.72;;
32138;SDS011;18644;48.700;9.210;2023-06-22T04:10:41;9.32;;;4.18;;
32138;SDS011;18644;48.700;9.210;2023-06-22T04:13:09;9.57;;;3.80;;
32138;SDS011;18644;48.700;9.210;2023-06-22T04:15:36;10.35;;;4.25;;
32138;SDS011;18644;48.700;9.210;2023-06-22T04:18:03;7.25;;;4.03;;
32138;SDS011;18644;48.700;9.210;2023-06-22T04:20:32;9.02;;;4.30;;
32138;SDS011;18644;48.700;9.210;2023-06-22T04:22:59;9.15;;;4.50;;
32138;SDS011;18644;48.700;9.210;2023-06-22T04:25:26;6.88;;;3.88;;
32138;SDS011;18644;48.700;9.210;2023-06-22T04:27:53;8.02;;;4.22;;
32138;SDS011;18644;48.700;9.210;2023-06-22T04:30:20;4.97;;;4.07;;
32138;SDS011;18644;48.700;9.210;2023-06-22T04:32:47;8.43;;;5.20;;
32138;SDS011;18644;48.700;9.210;2023-06-22T04:35:21;5.13;;;4.43;;
32138;SDS011;18644;48.700;9.210;2023-06-22T04:37:49;5.95;;;4.20;;
32138;SDS011;18644;48.700;9.210;2023-06-22T04:40:21;8.40;;;3.95;;
32138;SDS011;18644;48.700;9.210;2023-06-22T04:42:54;7.53;;;4.68;;
32138;SDS011;18644;48.700;9.210;2023-06-22T04:45:27;8.45;;;4.20;;
32138;SDS011;18644;48.700;9.210;2023-06-22T04:47:55;8.98;;;4.75;;
32138;SDS011;18644;48.700;9.210;2023-06-22T04:50:21;7.03;;;5.68;;
32138;SDS011;18644;48.700;9.210;2023-06-22T04:52:50;5.32;;;4.40;;
32138;SDS011;18644;48.700;9.210;2023-06-22T04:55:18;6.63;;;4.82;;
32138;SDS011;18644;48.700;9.210;2023-06-22T04:57:46;7.53;;;4.40;;
32138;SDS011;18644;48.700;9.210;2023-06-22T05:00:15;6.00;;;4.28;;
32138;SDS011;18644;48.700;9.210;2023-06-22T05:02:44;8.15;;;5.15;;
32138;SDS011;18644;48.700;9.210;2023-06-22T05:05:12;8.30;;;5.75;;
32138;SDS011;18644;48.700;9.210;2023-06-22T05:07:42;5.60;;;4.38;;
32138;SDS011;18644;48.700;9.210;2023-06-22T05:10:11;7.93;;;5.03;;
32138;SDS011;18644;48.700;9.210;2023-06-22T05:12:39;6.68;;;4.05;;
32138;SDS011;18644;48.700;9.210;2023-06-22T05:15:08;6.32;;;4.60;;
32138;SDS011;18644;48.700;9.210;2023-06-22T05:17:35;7.35;;;4.70;;
32138;SDS011;18644;48.700;9.210;2023-06-22T05:20:08;6.63;;;4.22;;
32138;SDS011;18644;48.700;9.210;2023-06-22T05:22:36;5.25;;;4.40;;
32138;SDS011;18644;48.700;9.210;2023-06-22T05:25:04;8.57;;;4.60;;
32138;SDS011;18644;48.700;9.210;2023-06-22T05:27:35;6.32;;;3.97;;
32138;SDS011;18644;48.700;9.210;2023-06-22T05:30:04;4.65;;;3.83;;
32138;SDS011;18644;48.700;9.210;2023-06-22T05:32:34;4.43;;;3.80;;
32138;SDS011;18644;48.700;9.210;2023-06-22T05:35:01;7.28;;;4.38;;
32138;SDS011;18644;48.700;9.210;2023-06-22T05:37:29;4.70;;;3.95;;
32138;SDS011;18644;48.700;9.210;2023-06-22T05:39:56;5.82;;;4.00;;
32138;SDS011;18644;48.700;9.210;2023-06-22T05:42:23;12.70;;;4.82;;
32138;SDS011;18644;48.700;9.210;2023-06-22T05:44:52;8.90;;;4.50;;
32138;SDS011;18644;48.700;9.210;2023-06-22T05:47:19;5.88;;;3.88;;
32138;SDS011;18644;48.700;9.210;2023-06-22T05:49:47;9.45;;;4.05;;
32138;SDS011;18644;48.700;9.210;2023-06-22T05:52:14;4.15;;;3.22;;
32138;SDS011;18644;48.700;9.210;2023-06-22T05:54:41;5.22;;;3.53;;
32138;SDS011;18644;48.700;9.210;2023-06-22T05:57:09;6.07;;;3.88;;
32138;SDS011;18644;48.700;9.210;2023-06-22T05:59:35;4.47;;;3.58;;
32138;SDS011;18644;48.700;9.210;2023-06-22T06:02:04;4.60;;;3.50;;
32138;SDS011;18644;48.700;9.210;2023-06-22T06:04:32;4.07;;;3.40;;
32138;SDS011;18644;48.700;9.210;2023-06-22T06:06:59;4.88;;;3.30;;
32138;SDS011;18644;48.700;9.210;2023-06-22T06:09:26;3.70;;;3.40;;
32138;SDS011;18644;48.700;9.210;2023-06-22T06:11:53;6.75;;;3.63;;
32138;SDS011;18644;48.700;9.210;2023-06-22T06:14:20;3.90;;;3.47;;
32138;SDS011;18644;48.700;9.210;2023-06-22T06:16:47;3.55;;;3.25;;
32138;SDS011;18644;48.700;9.210;2023-06-22T06:19:16;6.53;;;3.10;;
32138;SDS011;18644;48.700;9.210;2023-06-22T06:21:43;4.47;;;3.53;;
32138;SDS011;18644;48.700;9.210;2023-06-22T06:24:11;3.53;;;3.00;;
32138;SDS011;18644;48.700;9.210;2023-06-22T06:26:38;4.90;;;3.45;;
32138;SDS011;18644;48.700;9.210;2023-06-22T06:29:05;5.43;;;3.55;;
32138;SDS011;18644;48.700;9.210;2023-06-22T06:31:32;3.90;;;3.20;;
32138;SDS011;18644;48.700;9.210;2023-06-22T06:33:59;4.90;;;3.03;;
32138;SDS011;18644;48.700;9.210;2023-06-22T06:36:27;5.72;;;3.45;;
32138;SDS011;18644;48.700;9.210;2023-06-22T06:38:54;4.43;;;3.03;;
32138;SDS011;18644;48.700;9.210;2023-06-22T06:41:22;3.15;;;2.80;;
32138;SDS011;18644;48.700;9.210;2023-06-22T06:43:49;3.90;;;2.92;;
32138;SDS011;18644;48.700;9.210;2023-06-22T06:46:16;4.65;;;2.80;;
32138;SDS011;18644;48.700;9.210;2023-06-22T06:48:44;5.47;;;2.90;;
32138;SDS011;18644;48.700;9.210;2023-06-22T06:51:11;5.70;;;3.25;;
32138;SDS011;18644;48.700;9.210;2023-06-22T06:53:39;4.53;;;2.85;;
32138;SDS011;18644;48.700;9.210;2023-06-22T06:56:06;3.42;;;3.13;;
32138;SDS011;18644;48.700;9.210;2023-06-22T06:58:35;4.80;;;2.83;;
32138;SDS011;18644;48.700;9.210;2023-06-22T07:01:02;5.97;;;3.00;;
32138;SDS011;18644;48.700;9.210;2023-06-22T07:03:29;4.70;;;3.00;;
32138;SDS011;18644;48.700;9.210;2023-06-22T07:05:58;4.80;;;2.75;;
32138;SDS011;18644;48.700;9.210;2023-06-22T07:08:25;2.53;;;2.33;;
32138;SDS011;18644;48.700;9.210;2023-06-22T07:10:53;3.80;;;2.80;;
32138;SDS011;18644;48.700;9.210;2023-06-22T07:13:20;3.17;;;2.58;;
32138;SDS011;18644;48.700;9.210;2023-06-22T07:15:47;3.05;;;2.75;;
32138;SDS011;18644;48.700;9.210;2023-06-22T07:18:14;2.75;;;2.30;;
32138;SDS011;18644;48.700;9.210;2023-06-22T07:20:42;3.10;;;2.53;;
32138;SDS011;18644;48.700;9.210;2023-06-22T07:23:09;3.70;;;2.50;;
32138;SDS011;18644;48.700;9.210;2023-06-22T07:25:36;3.72;;;2.50;;
32138;SDS011;18644;48.700;9.210;2023-06-22T07:28:05;3.60;;;2.55;;
32138;SDS011;18644;48.700;9.210;2023-06-22T07:30:33;5.68;;;2.80;;
32138;SDS011;18644;48.700;9.210;2023-06-22T07:33:01;3.40;;;2.80;;
32138;SDS011;18644;48.700;9.210;2023-06-22T07:35:29;5.28;;;2.58;;
32138;SDS011;18644;48.700;9.210;2023-06-22T07:37:56;5.82;;;2.35;;
32138;SDS011;18644;48.700;9.210;2023-06-22T07:40:23;3.03;;;2.38;;
32138;SDS011;18644;48.700;9.210;2023-06-22T07:42:50;3.47;;;2.30;;
32138;SDS011;18644;48.700;9.210;2023-06-22T07:45:19;3.53;;;2.20;;
32138;SDS011;18644;48.700;9.210;2023-06-22T07:47:46;3.13;;;2.20;;
32138;SDS011;18644;48.700;9.210;2023-06-22T07:50:13;3.53;;;2.35;;
32138;SDS011;18644;48.700;9.210;2023-06-22T07:52:40;3.20;;;2.58;;
32138;SDS011;18644;48.700;9.210;2023-06-22T07:55:07;2.75;;;2.35;;
32138;SDS011;18644;48.700;9.210;2023-06-22T07:57:34;3.03;;;2.53;;
32138;SDS011;18644;48.700;9.210;2023-06-22T08:00:02;3.35;;;2.63;;
32138;SDS011;18644;48.700;9.210;2023-06-22T08:02:38;4.97;;;2.38;;
32138;SDS011;18644;48.700;9.210;2023-06-22T08:05:06;4.47;;;2.55;;
32138;SDS011;18644;48.700;9.210;2023-06-22T08:07:34;5.82;;;2.17;;
32138;SDS011;18644;48.700;9.210;2023-06-22T08:10:02;3.88;;;2.53;;
32138;SDS011;18644;48.700;9.210;2023-06-22T08:12:30;5.45;;;2.55;;
32138;SDS011;18644;48.700;9.210;2023-06-22T08:14:57;3.83;;;2.67;;
32138;SDS011;18644;48.700;9.210;2023-06-22T08:17:24;4.22;;;2.53;;
32138;SDS011;18644;48.700;9.210;2023-06-22T08:19:53;4.97;;;2.70;;
32138;SDS011;18644;48.700;9.210;2023-06-22T08:22:20;3.78;;;2.72;;
32138;SDS011;18644;48.700;9.210;2023-06-22T08:24:47;5.18;;;2.80;;
32138;SDS011;18644;48.700;9.210;2023-06-22T08:27:14;3.05;;;2.45;;
32138;SDS011;18644;48.700;9.210;2023-06-22T08:29:43;4.45;;;2.90;;
32138;SDS011;18644;48.700;9.210;2023-06-22T08:32:10;4.65;;;2.72;;
32138;SDS011;18644;48.700;9.210;2023-06-22T08:34:37;6.10;;;3.00;;
32138;SDS011;18644;48.700;9.210;2023-06-22T08:37:08;3.58;;;2.67;;
32138;SDS011;18644;48.700;9.210;2023-06-22T08:39:35;3.63;;;2.55;;
32138;SDS011;18644;48.700;9.210;2023-06-22T08:42:02;6.85;;;3.08;;
32138;SDS011;18644;48.700;9.210;2023-06-22T08:44:30;6.15;;;3.00;;
32138;SDS011;18644;48.700;9.210;2023-06-22T08:46:57;5.15;;;2.80;;
32138;SDS011;18644;48.700;9.210;2023-06-22T08:49:24;4.38;;;2.78;;
32138;SDS011;18644;48.700;9.210;2023-06-22T08:51:51;5.60;;;2.83;;
32138;SDS011;18644;48.700;9.210;2023-06-22T08:54:22;2.90;;;2.47;;
32138;SDS011;18644;48.700;9.210;2023-06-22T08:56:49;4.15;;;2.95;;
32138;SDS011;18644;48.700;9.210;2023-06-22T08:59:16;4.78;;;2.65;;
32138;SDS011;18644;48.700;9.210;2023-06-22T09:01:43;5.70;;;3.03;;
32138;SDS011;18644;48.700;9.210;2023-06-22T09:04:13;2.93;;;2.50;;
32138;SDS011;18644;48.700;9.210;2023-06-22T09:06:41;4.35;;;2.65;;
32138;SDS011;18644;48.700;9.210;2023-06-22T09:09:10;4.10;;;2.85;;
32138;SDS011;18644;48.700;9.210;2023-06-22T09:11:39;4.82;;;3.17;;
32138;SDS011;18644;48.700;9.210;2023-06-22T09:14:06;3.55;;;2.92;;
32138;SDS011;18644;48.700;9.210;2023-06-22T09:16:34;5.28;;;2.83;;
32138;SDS011;18644;48.700;9.210;2023-06-22T09:19:02;3.35;;;2.85;;
32138;SDS011;18644;48.700;9.210;2023-06-22T09:21:29;4.22;;;2.75;;
32138;SDS011;18644;48.700;9.210;2023-06-22T09:23:56;6.30;;;3.13;;
32138;SDS011;18644;48.700;9.210;2023-06-22T09:26:22;3.58;;;2.60;;
32138;SDS011;18644;48.700;9.210;2023-06-22T09:28:51;3.33;;;2.63;;
32138;SDS011;18644;48.700;9.210;2023-06-22T09:31:18;4.90;;;2.67;;
32138;SDS011;18644;48.700;9.210;2023-06-22T09:33:50;3.75;;;3.03;;
32138;SDS011;18644;48.700;9.210;2023-06-22T09:36:18;4.10;;;2.85;;
32138;SDS011;18644;48.700;9.210;2023-06-22T09:38:45;4.78;;;2.80;;
32138;SDS011;18644;48.700;9.210;2023-06-22T09:41:13;7.63;;;3.40;;
32138;SDS011;18644;48.700;9.210;2023-06-22T09:43:41;4.55;;;3.10;;
32138;SDS011;18644;48.700;9.210;2023-06-22T09:46:10;5.88;;;2.83;;
32138;SDS011;18644;48.700;9.210;2023-06-22T09:48:37;6.57;;;3.13;;
32138;SDS011;18644;48.700;9.210;2023-06-22T09:51:04;4.38;;;3.33;;
32138;SDS011;18644;48.700;9.210;2023-06-22T09:53:31;5.82;;;2.78;;
32138;SDS011;18644;48.700;9.210;2023-06-22T09:55:59;3.33;;;2.78;;
32138;SDS011;18644;48.700;9.210;2023-06-22T09:58:26;4.30;;;2.83;;
32138;SDS011;18644;48.700;9.210;2023-06-22T10:00:53;3.45;;;2.90;;
32138;SDS011;18644;48.700;9.210;2023-06-22T10:03:22;5.72;;;3.13;;
32138;SDS011;18644;48.700;9.210;2023-06-22T10:05:49;5.38;;;3.25;;
32138;SDS011;18644;48.700;9.210;2023-06-22T10:08:15;4.63;;;2.95;;
32138;SDS011;18644;48.700;9.210;2023-06-22T10:10:42;6.90;;;2.97;;
32138;SDS011;18644;48.700;9.210;2023-06-22T10:13:10;5.60;;;2.92;;
32138;SDS011;18644;48.700;9.210;2023-06-22T10:15:37;5.32;;;3.28;;
32138;SDS011;18644;48.700;9.210;2023-06-22T10:18:05;6.47;;;3.15;;
32138;SDS011;18644;48.700;9.210;2023-06-22T10:20:33;5.38;;;3.20;;
32138;SDS011;18644;48.700;9.210;2023-06-22T10:23:01;4.70;;;2.92;;
32138;SDS011;18644;48.700;9.210;2023-06-22T10:25:28;7.32;;;3.50;;
32138;SDS011;18644;48.700;9.210;2023-06-22T10:27:54;6.07;;;3.45;;
32138;SDS011;18644;48.700;9.210;2023-06-22T10:30:22;6.20;;;3.38;;
32138;SDS011;18644;48.700;9.210;2023-06-22T10:32:49;4.10;;;3.00;;
32138;SDS011;18644;48.700;9.210;2023-06-22T10:35:16;4.15;;;2.75;;
32138;SDS011;18644;48.700;9.210;2023-06-22T10:37:45;7.57;;;3.75;;
32138;SDS011;18644;48.700;9.210;2023-06-22T10:40:13;6.88;;;3.53;;
32138;SDS011;18644;48.700;9.210;2023-06-22T10:42:43;4.57;;;3.38;;
32138;SDS011;18644;48.700;9.210;2023-06-22T10:45:11;5.43;;;3.13;;
32138;SDS011;18644;48.700;9.210;2023-06-22T10:47:38;4.15;;;2.90;;
32138;SDS011;18644;48.700;9.210;2023-06-22T10:50:07;3.78;;;2.88;;
32138;SDS011;18644;48.700;9.210;2023-06-22T10:52:34;3.83;;;2.97;;
32138;SDS011;18644;48.700;9.210;2023-06-22T10:55:03;6.03;;;3.63;;
32138;SDS011;18644;48.700;9.210;2023-06-22T10:57:31;5.20;;;3.10;;
32138;SDS011;18644;48.700;9.210;2023-06-22T10:59:58;5.82;;;3.10;;
32138;SDS011;18644;48.700;9.210;2023-06-22T11:02:25;6.97;;;3.15;;
32138;SDS011;18644;48.700;9.210;2023-06-22T11:04:53;4.85;;;3.30;;
32138;SDS011;18644;48.700;9.210;2023-06-22T11:07:20;11.20;;;3.72;;
32138;SDS011;18644;48.700;9.210;2023-06-22T11:09:47;6.93;;;3.80;;
32138;SDS011;18644;48.700;9.210;2023-06-22T11:12:15;3.97;;;2.90;;
32138;SDS011;18644;48.700;9.210;2023-06-22T11:14:42;4.05;;;2.92;;
32138;SDS011;18644;48.700;9.210;2023-06-22T11:17:09;4.43;;;2.75;;
32138;SDS011;18644;48.700;9.210;2023-06-22T11:19:36;10.20;;;3.30;;
32138;SDS011;18644;48.700;9.210;2023-06-22T11:22:03;4.65;;;3.40;;
32138;SDS011;18644;48.700;9.210;2023-06-22T11:24:31;6.57;;;3.08;;
32138;SDS011;18644;48.700;9.210;2023-06-22T11:26:58;4.38;;;3.58;;
32138;SDS011;18644;48.700;9.210;2023-06-22T11:29:26;6.93;;;3.40;;
32138;SDS011;18644;48.700;9.210;2023-06-22T11:31:53;8.00;;;3.78;;
32138;SDS011;18644;48.700;9.210;2023-06-22T11:34:20;5.22;;;3.13;;
32138;SDS011;18644;48.700;9.210;2023-06-22T11:36:47;5.35;;;3.30;;
32138;SDS011;18644;48.700;9.210;2023-06-22T11:39:14;5.22;;;3.47;;
32138;SDS011;18644;48.700;9.210;2023-06-22T11:41:41;5.07;;;3.17;;
32138;SDS011;18644;48.700;9.210;2023-06-22T11:44:08;3.80;;;2.70;;
32138;SDS011;18644;48.700;9.210;2023-06-22T11:46:36;4.28;;;3.05;;
32138;SDS011;18644;48.700;9.210;2023-06-22T11:49:03;4.57;;;3.10;;
32138;SDS011;18644;48.700;9.210;2023-06-22T11:51:30;6.28;;;3.60;;
32138;SDS011;18644;48.700;9.210;2023-06-22T11:53:57;7.20;;;3.00;;
32138;SDS011;18644;48.700;9.210;2023-06-22T11:56:25;6.63;;;3.90;;
32138;SDS011;18644;48.700;9.210;2023-06-22T11:58:52;8.55;;;2.85;;
32138;SDS011;18644;48.700;9.210;2023-06-22T12:01:20;7.10;;;3.13;;
32138;SDS011;18644;48.700;9.210;2023-06-22T12:03:48;8.35;;;3.42;;
32138;SDS011;18644;48.700;9.210;2023-06-22T12:06:16;8.50;;;3.20;;
32138;SDS011;18644;48.700;9.210;2023-06-22T12:08:43;6.10;;;3.33;;
32138;SDS011;18644;48.700;9.210;2023-06-22T12:11:10;5.80;;;2.95;;
32138;SDS011;18644;48.700;9.210;2023-06-22T12:13:37;5.40;;;2.90;;
32138;SDS011;18644;48.700;9.210;2023-06-22T12:16:04;5.28;;;3.05;;
32138;SDS011;18644;48.700;9.210;2023-06-22T12:18:32;6.63;;;3.15;;
32138;SDS011;18644;48.700;9.210;2023-06-22T12:21:00;5.85;;;3.40;;
32138;SDS011;18644;48.700;9.210;2023-06-22T12:23:27;4.13;;;3.10;;
32138;SDS011;18644;48.700;9.210;2023-06-22T12:25:54;4.22;;;2.85;;
32138;SDS011;18644;48.700;9.210;2023-06-22T12:28:21;5.95;;;3.05;;
32138;SDS011;18644;48.700;9.210;2023-06-22T12:30:48;5.45;;;2.83;;
32138;SDS011;18644;48.700;9.210;2023-06-22T12:33:16;4.10;;;2.55;;
32138;SDS011;18644;48.700;9.210;2023-06-22T12:35:43;4.07;;;2.53;;
32138;SDS011;18644;48.700;9.210;2023-06-22T12:38:15;5.32;;;2.80;;
32138;SDS011;18644;48.700;9.210;2023-06-22T12:40:42;6.45;;;3.15;;
32138;SDS011;18644;48.700;9.210;2023-06-22T12:43:09;6.07;;;3.13;;
32138;SDS011;18644;48.700;9.210;2023-06-22T12:45:36;8.50;;;2.65;;
32138;SDS011;18644;48.700;9.210;2023-06-22T12:48:04;7.45;;;3.28;;
32138;SDS011;18644;48.700;9.210;2023-06-22T12:50:31;5.72;;;3.78;;
32138;SDS011;18644;48.700;9.210;2023-06-22T12:52:58;7.38;;;3.83;;
32138;SDS011;18644;48.700;9.210;2023-06-22T12:55:28;6.25;;;3.15;;
32138;SDS011;18644;48.700;9.210;2023-06-22T12:57:55;6.28;;;2.97;;
32138;SDS011;18644;48.700;9.210;2023-06-22T13:00:22;5.30;;;3.45;;
32138;SDS011;18644;48.700;9.210;2023-06-22T13:02:49;5.30;;;2.83;;
32138;SDS011;18644;48.700;9.210;2023-06-22T13:05:16;4.10;;;2.90;;
32138;SDS011;18644;48.700;9.210;2023-06-22T13:07:43;5.18;;;3.25;;
32138;SDS011;18644;48.700;9.210;2023-06-22T13:10:10;8.80;;;2.90;;
32138;SDS011;18644;48.700;9.210;2023-06-22T13:12:39;5.68;;;2.85;;
32138;SDS011;18644;48.700;9.210;2023-06-22T13:15:06;4.65;;;3.30;;
32138;SDS011;18644;48.700;9.210;2023-06-22T13:17:34;6.32;;;3.00;;
32138;SDS011;18644;48.700;9.210;2023-06-22T13:20:01;4.60;;;3.20;;
32138;SDS011;18644;48.700;9.210;2023-06-22T13:22:30;6.35;;;3.30;;
32138;SDS011;18644;48.700;9.210;2023-06-22T13:24:59;5.88;;;3.53;;
32138;SDS011;18644;48.700;9.210;2023-06-22T13:27:27;4.90;;;2.80;;
32138;SDS011;18644;48.700;9.210;2023-06-22T13:29:55;6.40;;;3.17;;
32138;SDS011;18644;48.700;9.210;2023-06-22T13:32:22;6.65;;;3.33;;
32138;SDS011;18644;48.700;9.210;2023-06-22T13:34:49;4.65;;;2.90;;
32138;SDS011;18644;48.700;9.210;2023-06-22T13:37:18;6.22;;;3.22;;
32138;SDS011;18644;48.700;9.210;2023-06-22T13:39:45;7.55;;;3.28;;
32138;SDS011;18644;48.700;9.210;2023-06-22T13:42:12;6.80;;;3.40;;
32138;SDS011;18644;48.700;9.210;2023-06-22T13:44:39;6.22;;;3.28;;
32138;SDS011;18644;48.700;9.210;2023-06-22T13:47:07;5.35;;;3.03;;
32138;SDS011;18644;48.700;9.210;2023-06-22T13:49:34;6.47;;;2.85;;
32138;SDS011;18644;48.700;9.210;2023-06-22T13:52:02;4.68;;;2.92;;
32138;SDS011;18644;48.700;9.210;2023-06-22T13:54:31;5.18;;;3.10;;
32138;SDS011;18644;48.700;9.210;2023-06-22T13:56:58;7.60;;;2.95;;
32138;SDS011;18644;48.700;9.210;2023-06-22T13:59:25;10.60;;;3.00;;
32138;SDS011;18644;48.700;9.210;2023-06-22T14:01:53;5.43;;;3.05;;
32138;SDS011;18644;48.700;9.210;2023-06-22T14:04:22;5.18;;;2.65;;
32138;SDS011;18644;48.700;9.210;2023-06-22T14:06:50;5.60;;;2.95;;
32138;SDS011;18644;48.700;9.210;2023-06-22T14:09:17;3.88;;;2.72;;
32138;SDS011;18644;48.700;9.210;2023-06-22T14:11:44;5.85;;;3.17;;
32138;SDS011;18644;48.700;9.210;2023-06-22T14:14:10;5.57;;;2.60;;
32138;SDS011;18644;48.700;9.210;2023-06-22T14:16:37;5.65;;;3.03;;
32138;SDS011;18644;48.700;9.210;2023-06-22T14:19:04;11.95;;;3.40;;
32138;SDS011;18644;48.700;9.210;2023-06-22T14:21:32;5.53;;;2.95;;
32138;SDS011;18644;48.700;9.210;2023-06-22T14:23:59;9.05;;;3.35;;
32138;SDS011;18644;48.700;9.210;2023-06-22T14:26:26;8.23;;;3.80;;
32138;SDS011;18644;48.700;9.210;2023-06-22T14:28:53;7.28;;;3.35;;
32138;SDS011;18644;48.700;9.210;2023-06-22T14:31:21;5.40;;;3.25;;
32138;SDS011;18644;48.700;9.210;2023-06-22T14:33:49;7.07;;;3.17;;
32138;SDS011;18644;48.700;9.210;2023-06-22T14:36:16;7.25;;;3.45;;
32138;SDS011;18644;48.700;9.210;2023-06-22T14:38:45;5.20;;;3.10;;
32138;SDS011;18644;48.700;9.210;2023-06-22T14:41:12;4.50;;;2.95;;
32138;SDS011;18644;48.700;9.210;2023-06-22T14:43:43;4.20;;;2.83;;
32138;SDS011;18644;48.700;9.210;2023-06-22T14:46:11;6.55;;;3.08;;
32138;SDS011;18644;48.700;9.210;2023-06-22T14:48:38;4.60;;;2.83;;
32138;SDS011;18644;48.700;9.210;2023-06-22T14:51:05;6.03;;;2.50;;
32138;SDS011;18644;48.700;9.210;2023-06-22T14:53:33;4.80;;;2.88;;